Tampa International Airport
KTPA : rendu visible

Aérodrome :











RETROUVEZ-NOUS SUR...

 
LOGIN :

S'inscrire | Disclaimer

   EN    FR    IT 

 









Légende :    VFR   VFR Marginal   IFR   IFR Intensif   IFR Très Intensif
Visi : 
Plafond : 
>= 8 km
>= 3000ft
5 à 8 km
1000 à 3000 ft
1500m à 5 km
500 à 1000 ft
800 à 1500m
200 à 500 ft
< 800m
< 200 ft
Symboles :   Orages  Brouillard  Fortes neiges  Fortes précipitations  Vent > 20 kt






- Altitude de l'aérodrome : 26 ft
- Code IATA : TPA


KTPA - Tampa International

DERNIER METAR :
  • 031653Z 27008KT 10SM -RA FEW030 SCT045 SCT060 BKN280 32/22 A2994 RMK AO2 RAB50 SLP137 CU BLDG ALQDS P0000 T03170217

METARs EXPIRÉS :
  • 031553Z 25009KT 10SM FEW040 BKN280 32/23 A2995 RMK AO2 SLP140 CU BLDG W-N T03170228

TAF KTPA
Valide du 03 à 18h jusqu'au 05 à 00h UTC


031731Z 0318/0424 27010KT P6SM SCT030 BKN250
FM040000 27006KT P6SM FEW030 SCT250
FM041400 23006KT P6SM VCSH SCT025 SCT250
FM042000 27008KT P6SM VCTS FEW020CB SCT100 BKN250
FIR KZJX / Amérique du Nord



MET'MAP, la Météo Aéronautique d'un coup d'oeil ! - Copyright ORBIFLY Décembre 2007 - Disclaimer

ORBIFLY MET'MAP TEAM :

Programmation & Développement : Alexandra Zaïnal
Sur une idée originale de : Baudouin d'Aumeries
Assistance à la programmation : Marc-Olivier Méhu
Soutien technique & logistique : Manuel Goepfert

Contact : metmap@orbifly.com




SOURCES & CREDITS :

   NOAA       Earth
Advisory